sensor_id;sensor_type;location;lat;lon;timestamp;pressure;altitude;pressure_sealevel;temperature;humidity
22214;BME280;11276;43.566;27.824;2022-08-19T00:01:47;98461.91;;;23.89;100.00
22214;BME280;11276;43.566;27.824;2022-08-19T00:04:17;98471.63;;;23.90;100.00
22214;BME280;11276;43.566;27.824;2022-08-19T00:06:46;98462.56;;;23.84;100.00
22214;BME280;11276;43.566;27.824;2022-08-19T00:09:15;98456.19;;;23.79;100.00
22214;BME280;11276;43.566;27.824;2022-08-19T00:11:42;98476.84;;;23.85;100.00
22214;BME280;11276;43.566;27.824;2022-08-19T00:14:11;98478.47;;;23.86;100.00
22214;BME280;11276;43.566;27.824;2022-08-19T00:16:39;98479.53;;;23.85;100.00
22214;BME280;11276;43.566;27.824;2022-08-19T00:19:08;98464.09;;;23.74;100.00
22214;BME280;11276;43.566;27.824;2022-08-19T00:21:35;98474.97;;;23.85;100.00
22214;BME280;11276;43.566;27.824;2022-08-19T00:24:08;98470.25;;;23.81;100.00
22214;BME280;11276;43.566;27.824;2022-08-19T00:26:37;98469.03;;;23.77;100.00
22214;BME280;11276;43.566;27.824;2022-08-19T00:29:06;98476.44;;;23.81;100.00
22214;BME280;11276;43.566;27.824;2022-08-19T00:31:33;98464.09;;;23.74;100.00
22214;BME280;11276;43.566;27.824;2022-08-19T00:34:00;98453.81;;;23.71;100.00
22214;BME280;11276;43.566;27.824;2022-08-19T00:36:26;98465.34;;;23.71;100.00
22214;BME280;11276;43.566;27.824;2022-08-19T00:38:55;98466.19;;;23.72;100.00
22214;BME280;11276;43.566;27.824;2022-08-19T00:41:24;98483.09;;;23.79;100.00
22214;BME280;11276;43.566;27.824;2022-08-19T00:44:16;98474.41;;;23.77;100.00
22214;BME280;11276;43.566;27.824;2022-08-19T00:46:44;98455.25;;;23.67;100.00
22214;BME280;11276;43.566;27.824;2022-08-19T00:49:15;98475.91;;;23.73;100.00
22214;BME280;11276;43.566;27.824;2022-08-19T00:51:45;98480.06;;;23.69;100.00
22214;BME280;11276;43.566;27.824;2022-08-19T00:54:13;98465.69;;;23.56;100.00
22214;BME280;11276;43.566;27.824;2022-08-19T00:56:41;98467.19;;;23.52;100.00
22214;BME280;11276;43.566;27.824;2022-08-19T00:59:09;98458.13;;;23.47;100.00
22214;BME280;11276;43.566;27.824;2022-08-19T01:01:38;98456.53;;;23.39;100.00
22214;BME280;11276;43.566;27.824;2022-08-19T01:04:06;98452.78;;;23.40;100.00
22214;BME280;11276;43.566;27.824;2022-08-19T01:06:35;98479.22;;;23.50;100.00
22214;BME280;11276;43.566;27.824;2022-08-19T01:09:04;98476.28;;;23.51;100.00
22214;BME280;11276;43.566;27.824;2022-08-19T01:11:35;98470.91;;;23.51;100.00
22214;BME280;11276;43.566;27.824;2022-08-19T01:14:04;98468.09;;;23.40;100.00
22214;BME280;11276;43.566;27.824;2022-08-19T01:16:32;98475.91;;;23.41;100.00
22214;BME280;11276;43.566;27.824;2022-08-19T01:19:01;98468.06;;;23.46;100.00
22214;BME280;11276;43.566;27.824;2022-08-19T01:21:42;98467.06;;;23.41;100.00
22214;BME280;11276;43.566;27.824;2022-08-19T01:24:10;98470.78;;;23.40;100.00
22214;BME280;11276;43.566;27.824;2022-08-19T01:26:40;98467.25;;;23.39;100.00
22214;BME280;11276;43.566;27.824;2022-08-19T01:29:08;98450.81;;;23.29;100.00
22214;BME280;11276;43.566;27.824;2022-08-19T01:31:36;98461.09;;;23.32;100.00
22214;BME280;11276;43.566;27.824;2022-08-19T01:34:03;98456.81;;;23.31;100.00
22214;BME280;11276;43.566;27.824;2022-08-19T01:36:35;98465.06;;;23.30;100.00
22214;BME280;11276;43.566;27.824;2022-08-19T01:39:07;98473.94;;;23.30;100.00
22214;BME280;11276;43.566;27.824;2022-08-19T01:41:34;98447.16;;;23.17;100.00
22214;BME280;11276;43.566;27.824;2022-08-19T01:44:02;98462.41;;;23.23;100.00
22214;BME280;11276;43.566;27.824;2022-08-19T01:46:31;98455.06;;;23.12;100.00
22214;BME280;11276;43.566;27.824;2022-08-19T01:48:59;98460.75;;;23.22;100.00
22214;BME280;11276;43.566;27.824;2022-08-19T01:51:26;98447.44;;;23.09;100.00
22214;BME280;11276;43.566;27.824;2022-08-19T01:53:54;98439.84;;;23.06;100.00
22214;BME280;11276;43.566;27.824;2022-08-19T01:56:20;98455.47;;;23.15;100.00
22214;BME280;11276;43.566;27.824;2022-08-19T01:58:56;98462.03;;;23.20;100.00
22214;BME280;11276;43.566;27.824;2022-08-19T02:01:24;98449.03;;;23.16;100.00
22214;BME280;11276;43.566;27.824;2022-08-19T02:03:51;98444.75;;;23.09;100.00
22214;BME280;11276;43.566;27.824;2022-08-19T02:06:20;98454.63;;;23.15;100.00
22214;BME280;11276;43.566;27.824;2022-08-19T02:08:47;98441.91;;;23.04;100.00
22214;BME280;11276;43.566;27.824;2022-08-19T02:11:26;98453.44;;;23.11;100.00
22214;BME280;11276;43.566;27.824;2022-08-19T02:13:54;98439.22;;;23.04;100.00
22214;BME280;11276;43.566;27.824;2022-08-19T02:16:21;98439.41;;;23.02;100.00
22214;BME280;11276;43.566;27.824;2022-08-19T02:18:48;98449.94;;;23.04;100.00
22214;BME280;11276;43.566;27.824;2022-08-19T02:21:17;98449.34;;;23.02;100.00
22214;BME280;11276;43.566;27.824;2022-08-19T02:23:45;98447.72;;;23.01;100.00
22214;BME280;11276;43.566;27.824;2022-08-19T02:26:12;98430.19;;;22.92;100.00
22214;BME280;11276;43.566;27.824;2022-08-19T02:28:41;98440.31;;;22.96;100.00
22214;BME280;11276;43.566;27.824;2022-08-19T02:31:15;98439.91;;;22.93;100.00
22214;BME280;11276;43.566;27.824;2022-08-19T02:33:42;98444.44;;;22.92;100.00
22214;BME280;11276;43.566;27.824;2022-08-19T02:36:11;98440.34;;;22.90;100.00
22214;BME280;11276;43.566;27.824;2022-08-19T02:38:39;98441.53;;;22.94;100.00
22214;BME280;11276;43.566;27.824;2022-08-19T02:41:11;98443.63;;;22.92;100.00
22214;BME280;11276;43.566;27.824;2022-08-19T02:43:38;98443.22;;;22.88;100.00
22214;BME280;11276;43.566;27.824;2022-08-19T02:46:18;98449.88;;;22.86;100.00
22214;BME280;11276;43.566;27.824;2022-08-19T02:48:49;98438.97;;;22.81;100.00
22214;BME280;11276;43.566;27.824;2022-08-19T02:51:30;98442.41;;;22.88;100.00
22214;BME280;11276;43.566;27.824;2022-08-19T02:53:57;98433.16;;;22.84;100.00
22214;BME280;11276;43.566;27.824;2022-08-19T02:56:25;98437.47;;;22.85;100.00
22214;BME280;11276;43.566;27.824;2022-08-19T02:58:54;98437.69;;;22.83;100.00
22214;BME280;11276;43.566;27.824;2022-08-19T03:01:31;98441.63;;;22.81;100.00
22214;BME280;11276;43.566;27.824;2022-08-19T03:04:00;98435.03;;;22.77;100.00
22214;BME280;11276;43.566;27.824;2022-08-19T03:06:28;98423.09;;;22.66;100.00
22214;BME280;11276;43.566;27.824;2022-08-19T03:08:55;98444.97;;;22.76;100.00
22214;BME280;11276;43.566;27.824;2022-08-19T03:13:51;98435.91;;;22.70;100.00
22214;BME280;11276;43.566;27.824;2022-08-19T03:16:19;98451.56;;;22.73;100.00
22214;BME280;11276;43.566;27.824;2022-08-19T03:18:46;98443.31;;;22.75;100.00
22214;BME280;11276;43.566;27.824;2022-08-19T03:21:24;98452.41;;;22.74;100.00
22214;BME280;11276;43.566;27.824;2022-08-19T03:23:55;98436.53;;;22.66;100.00
22214;BME280;11276;43.566;27.824;2022-08-19T03:26:22;98453.22;;;22.74;100.00
22214;BME280;11276;43.566;27.824;2022-08-19T03:28:49;98443.72;;;22.72;100.00
22214;BME280;11276;43.566;27.824;2022-08-19T03:31:19;98454.88;;;22.76;100.00
22214;BME280;11276;43.566;27.824;2022-08-19T03:33:49;98466.63;;;22.81;100.00
22214;BME280;11276;43.566;27.824;2022-08-19T03:36:19;98464.75;;;22.82;100.00
22214;BME280;11276;43.566;27.824;2022-08-19T03:38:51;98460.25;;;22.76;100.00
22214;BME280;11276;43.566;27.824;2022-08-19T03:41:21;98466.03;;;22.72;100.00
22214;BME280;11276;43.566;27.824;2022-08-19T03:43:48;98474.69;;;22.81;100.00
22214;BME280;11276;43.566;27.824;2022-08-19T03:46:18;98480.47;;;22.78;100.00
22214;BME280;11276;43.566;27.824;2022-08-19T03:48:47;98474.09;;;22.72;100.00
22214;BME280;11276;43.566;27.824;2022-08-19T03:51:20;98491.59;;;22.82;100.00
22214;BME280;11276;43.566;27.824;2022-08-19T03:53:48;98487.28;;;22.81;100.00
22214;BME280;11276;43.566;27.824;2022-08-19T03:56:15;98490.78;;;22.81;100.00
22214;BME280;11276;43.566;27.824;2022-08-19T03:58:43;98497.13;;;22.87;100.00
22214;BME280;11276;43.566;27.824;2022-08-19T04:01:12;98502.09;;;22.90;100.00
22214;BME280;11276;43.566;27.824;2022-08-19T04:03:39;98500.06;;;22.85;100.00
22214;BME280;11276;43.566;27.824;2022-08-19T04:06:18;98483.72;;;22.87;100.00
22214;BME280;11276;43.566;27.824;2022-08-19T04:08:45;98512.56;;;22.98;100.00
22214;BME280;11276;43.566;27.824;2022-08-19T04:11:15;98496.28;;;22.93;100.00
22214;BME280;11276;43.566;27.824;2022-08-19T04:13:42;98518.56;;;23.00;100.00
22214;BME280;11276;43.566;27.824;2022-08-19T04:16:11;98490.69;;;23.01;100.00
22214;BME280;11276;43.566;27.824;2022-08-19T04:18:38;98502.19;;;23.08;100.00
22214;BME280;11276;43.566;27.824;2022-08-19T04:21:06;98508.13;;;23.16;100.00
22214;BME280;11276;43.566;27.824;2022-08-19T04:23:35;98517.81;;;23.24;100.00
22214;BME280;11276;43.566;27.824;2022-08-19T04:26:05;98497.34;;;23.23;100.00
22214;BME280;11276;43.566;27.824;2022-08-19T04:28:31;98517.72;;;23.37;100.00
22214;BME280;11276;43.566;27.824;2022-08-19T04:30:58;98506.97;;;23.37;100.00
22214;BME280;11276;43.566;27.824;2022-08-19T04:33:25;98508.16;;;23.48;100.00
22214;BME280;11276;43.566;27.824;2022-08-19T04:35:52;98526.22;;;23.66;100.00
22214;BME280;11276;43.566;27.824;2022-08-19T04:38:21;98521.59;;;23.73;100.00
22214;BME280;11276;43.566;27.824;2022-08-19T04:40:51;98530.00;;;23.83;100.00
22214;BME280;11276;43.566;27.824;2022-08-19T04:43:38;98514.69;;;23.83;100.00
22214;BME280;11276;43.566;27.824;2022-08-19T04:46:06;98517.34;;;23.90;100.00
22214;BME280;11276;43.566;27.824;2022-08-19T04:48:35;98527.09;;;24.09;100.00
22214;BME280;11276;43.566;27.824;2022-08-19T04:51:06;98523.94;;;24.12;100.00
22214;BME280;11276;43.566;27.824;2022-08-19T04:53:36;98527.78;;;24.23;100.00
22214;BME280;11276;43.566;27.824;2022-08-19T04:56:08;98517.84;;;24.23;100.00
22214;BME280;11276;43.566;27.824;2022-08-19T04:58:37;98519.88;;;24.28;100.00
22214;BME280;11276;43.566;27.824;2022-08-19T05:01:04;98525.94;;;24.41;100.00
22214;BME280;11276;43.566;27.824;2022-08-19T05:03:31;98534.09;;;24.53;100.00
22214;BME280;11276;43.566;27.824;2022-08-19T05:06:08;98536.88;;;24.65;100.00
22214;BME280;11276;43.566;27.824;2022-08-19T05:08:39;98521.41;;;24.60;100.00
22214;BME280;11276;43.566;27.824;2022-08-19T05:11:15;98538.78;;;24.76;99.85
22214;BME280;11276;43.566;27.824;2022-08-19T05:13:44;98549.84;;;24.86;99.34
22214;BME280;11276;43.566;27.824;2022-08-19T05:16:12;98556.16;;;24.98;99.02
22214;BME280;11276;43.566;27.824;2022-08-19T05:18:40;98542.63;;;25.05;98.67
22214;BME280;11276;43.566;27.824;2022-08-19T05:21:26;98553.69;;;25.26;98.54
22214;BME280;11276;43.566;27.824;2022-08-19T05:24:12;98541.41;;;25.30;97.78
22214;BME280;11276;43.566;27.824;2022-08-19T05:26:42;98556.03;;;25.53;96.52
22214;BME280;11276;43.566;27.824;2022-08-19T05:29:10;98551.84;;;25.57;95.94
22214;BME280;11276;43.566;27.824;2022-08-19T05:31:37;98542.69;;;25.58;95.65
22214;BME280;11276;43.566;27.824;2022-08-19T05:34:07;98554.47;;;25.75;95.19
22214;BME280;11276;43.566;27.824;2022-08-19T05:36:37;98540.97;;;25.87;94.26
22214;BME280;11276;43.566;27.824;2022-08-19T05:39:10;98539.84;;;25.94;93.22
22214;BME280;11276;43.566;27.824;2022-08-19T05:41:49;98548.88;;;26.11;93.04
22214;BME280;11276;43.566;27.824;2022-08-19T05:44:16;98550.03;;;26.15;92.53
22214;BME280;11276;43.566;27.824;2022-08-19T05:46:44;98553.31;;;26.18;92.30
22214;BME280;11276;43.566;27.824;2022-08-19T05:49:14;98553.72;;;26.33;91.73
22214;BME280;11276;43.566;27.824;2022-08-19T05:51:42;98550.75;;;26.46;91.34
22214;BME280;11276;43.566;27.824;2022-08-19T05:54:09;98554.16;;;26.53;91.17
22214;BME280;11276;43.566;27.824;2022-08-19T05:56:41;98551.56;;;26.70;90.64
22214;BME280;11276;43.566;27.824;2022-08-19T05:59:09;98559.94;;;27.08;87.97
22214;BME280;11276;43.566;27.824;2022-08-19T06:01:39;98546.34;;;27.93;83.28
22214;BME280;11276;43.566;27.824;2022-08-19T06:04:07;98547.00;;;28.72;79.01
22214;BME280;11276;43.566;27.824;2022-08-19T06:06:34;98557.31;;;28.97;77.60
22214;BME280;11276;43.566;27.824;2022-08-19T06:09:03;98539.28;;;28.86;77.51
22214;BME280;11276;43.566;27.824;2022-08-19T06:11:39;98551.88;;;28.75;78.91
22214;BME280;11276;43.566;27.824;2022-08-19T06:14:10;98549.06;;;28.87;78.33
22214;BME280;11276;43.566;27.824;2022-08-19T06:16:38;98534.28;;;28.99;77.38
22214;BME280;11276;43.566;27.824;2022-08-19T06:19:12;98532.97;;;29.50;75.14
22214;BME280;11276;43.566;27.824;2022-08-19T06:21:40;98530.69;;;30.90;69.74
22214;BME280;11276;43.566;27.824;2022-08-19T06:24:10;98518.34;;;32.26;62.98
22214;BME280;11276;43.566;27.824;2022-08-19T06:26:40;98525.63;;;33.25;59.30
22214;BME280;11276;43.566;27.824;2022-08-19T06:29:09;98539.25;;;33.74;57.05
22214;BME280;11276;43.566;27.824;2022-08-19T06:31:36;98530.44;;;34.69;52.99
22214;BME280;11276;43.566;27.824;2022-08-19T06:34:04;98540.53;;;35.91;49.03
22214;BME280;11276;43.566;27.824;2022-08-19T06:36:35;98542.59;;;36.99;46.43
22214;BME280;11276;43.566;27.824;2022-08-19T06:39:08;98538.75;;;37.14;44.48
22214;BME280;11276;43.566;27.824;2022-08-19T06:41:42;98546.59;;;37.43;43.27
22214;BME280;11276;43.566;27.824;2022-08-19T06:44:13;98538.53;;;37.82;42.68
22214;BME280;11276;43.566;27.824;2022-08-19T06:46:42;98536.88;;;37.23;43.05
22214;BME280;11276;43.566;27.824;2022-08-19T06:49:09;98538.91;;;37.67;42.42
22214;BME280;11276;43.566;27.824;2022-08-19T06:51:37;98538.88;;;38.34;39.93
22214;BME280;11276;43.566;27.824;2022-08-19T06:54:05;98540.09;;;37.97;41.42
22214;BME280;11276;43.566;27.824;2022-08-19T06:56:33;98529.94;;;38.59;39.76
22214;BME280;11276;43.566;27.824;2022-08-19T06:59:03;98537.56;;;38.62;39.90
22214;BME280;11276;43.566;27.824;2022-08-19T07:01:38;98549.38;;;38.54;39.44
22214;BME280;11276;43.566;27.824;2022-08-19T07:04:07;98531.03;;;38.19;39.34
22214;BME280;11276;43.566;27.824;2022-08-19T07:06:36;98518.78;;;39.55;37.01
22214;BME280;11276;43.566;27.824;2022-08-19T07:09:13;98539.09;;;39.68;36.86
22214;BME280;11276;43.566;27.824;2022-08-19T07:11:48;98524.94;;;39.95;36.27
22214;BME280;11276;43.566;27.824;2022-08-19T07:14:19;98536.59;;;40.18;35.90
22214;BME280;11276;43.566;27.824;2022-08-19T07:16:48;98524.22;;;41.00;34.41
22214;BME280;11276;43.566;27.824;2022-08-19T07:19:17;98523.78;;;40.22;35.33
22214;BME280;11276;43.566;27.824;2022-08-19T07:21:48;98532.06;;;41.28;33.77
22214;BME280;11276;43.566;27.824;2022-08-19T07:24:17;98534.47;;;40.70;34.42
22214;BME280;11276;43.566;27.824;2022-08-19T07:26:44;98524.00;;;40.00;35.57
22214;BME280;11276;43.566;27.824;2022-08-19T07:29:12;98509.38;;;39.74;35.79
22214;BME280;11276;43.566;27.824;2022-08-19T07:31:39;98524.19;;;40.41;35.28
22214;BME280;11276;43.566;27.824;2022-08-19T07:34:08;98520.41;;;40.63;35.13
22214;BME280;11276;43.566;27.824;2022-08-19T07:36:36;98513.72;;;40.00;35.58
22214;BME280;11276;43.566;27.824;2022-08-19T07:39:08;98528.97;;;42.03;32.11
22214;BME280;11276;43.566;27.824;2022-08-19T07:41:36;98527.38;;;41.82;32.64
22214;BME280;11276;43.566;27.824;2022-08-19T07:44:04;98522.66;;;40.91;34.20
22214;BME280;11276;43.566;27.824;2022-08-19T07:46:32;98507.25;;;40.90;33.04
22214;BME280;11276;43.566;27.824;2022-08-19T07:48:59;98506.22;;;41.65;32.50
22214;BME280;11276;43.566;27.824;2022-08-19T07:51:27;98503.47;;;40.94;33.22
22214;BME280;11276;43.566;27.824;2022-08-19T07:53:55;98519.56;;;41.42;32.53
22214;BME280;11276;43.566;27.824;2022-08-19T07:56:23;98526.03;;;41.25;33.11
22214;BME280;11276;43.566;27.824;2022-08-19T07:58:51;98506.22;;;42.31;31.02
22214;BME280;11276;43.566;27.824;2022-08-19T08:01:21;98515.00;;;42.57;30.18
22214;BME280;11276;43.566;27.824;2022-08-19T08:03:51;98512.81;;;42.38;31.03
22214;BME280;11276;43.566;27.824;2022-08-19T08:06:37;98519.97;;;41.11;32.39
22214;BME280;11276;43.566;27.824;2022-08-19T08:09:30;98518.00;;;39.81;34.26
22214;BME280;11276;43.566;27.824;2022-08-19T08:12:07;98517.94;;;40.91;32.70
22214;BME280;11276;43.566;27.824;2022-08-19T08:14:48;98520.47;;;41.55;31.70
22214;BME280;11276;43.566;27.824;2022-08-19T08:17:18;98511.75;;;42.31;30.20
22214;BME280;11276;43.566;27.824;2022-08-19T08:19:46;98508.09;;;41.73;30.99
22214;BME280;11276;43.566;27.824;2022-08-19T08:22:16;98522.63;;;40.99;31.79
22214;BME280;11276;43.566;27.824;2022-08-19T08:25:11;98518.63;;;42.25;29.92
22214;BME280;11276;43.566;27.824;2022-08-19T08:27:40;98518.72;;;41.30;31.20
22214;BME280;11276;43.566;27.824;2022-08-19T08:30:12;98511.19;;;39.61;33.45
22214;BME280;11276;43.566;27.824;2022-08-19T08:32:40;98512.94;;;39.31;34.13
22214;BME280;11276;43.566;27.824;2022-08-19T08:35:10;98505.72;;;38.79;35.13
22214;BME280;11276;43.566;27.824;2022-08-19T08:37:38;98511.47;;;40.20;33.48
22214;BME280;11276;43.566;27.824;2022-08-19T08:40:19;98507.91;;;40.87;31.94
22214;BME280;11276;43.566;27.824;2022-08-19T08:45:35;98500.53;;;41.41;30.66
22214;BME280;11276;43.566;27.824;2022-08-19T08:48:22;98509.03;;;41.36;31.09
22214;BME280;11276;43.566;27.824;2022-08-19T08:50:52;98509.47;;;41.05;31.28
22214;BME280;11276;43.566;27.824;2022-08-19T08:53:22;98508.63;;;41.87;30.22
22214;BME280;11276;43.566;27.824;2022-08-19T08:55:49;98512.81;;;41.10;31.36
22214;BME280;11276;43.566;27.824;2022-08-19T08:58:26;98515.25;;;38.81;35.76
22214;BME280;11276;43.566;27.824;2022-08-19T09:00:55;98508.31;;;38.36;35.81
22214;BME280;11276;43.566;27.824;2022-08-19T09:03:26;98504.50;;;39.19;35.14
22214;BME280;11276;43.566;27.824;2022-08-19T09:06:01;98505.44;;;38.89;35.52
22214;BME280;11276;43.566;27.824;2022-08-19T09:09:03;98508.13;;;39.45;34.99
22214;BME280;11276;43.566;27.824;2022-08-19T09:11:37;98511.75;;;38.89;35.66
22214;BME280;11276;43.566;27.824;2022-08-19T09:14:32;98518.00;;;38.72;35.60
22214;BME280;11276;43.566;27.824;2022-08-19T09:17:18;98512.28;;;39.17;35.37
22214;BME280;11276;43.566;27.824;2022-08-19T09:19:55;98498.66;;;40.53;32.67
22214;BME280;11276;43.566;27.824;2022-08-19T09:22:23;98508.13;;;39.45;34.62
22214;BME280;11276;43.566;27.824;2022-08-19T09:24:50;98509.69;;;39.98;34.23
22214;BME280;11276;43.566;27.824;2022-08-19T09:27:21;98500.19;;;39.35;34.66
22214;BME280;11276;43.566;27.824;2022-08-19T09:29:53;98519.47;;;38.70;35.81
22214;BME280;11276;43.566;27.824;2022-08-19T09:32:21;98511.38;;;37.45;35.96
22214;BME280;11276;43.566;27.824;2022-08-19T09:34:52;98506.19;;;37.79;36.17
22214;BME280;11276;43.566;27.824;2022-08-19T09:37:21;98519.91;;;38.32;36.18
22214;BME280;11276;43.566;27.824;2022-08-19T09:39:48;98494.91;;;38.12;37.12
22214;BME280;11276;43.566;27.824;2022-08-19T09:42:15;98511.22;;;37.28;39.13
22214;BME280;11276;43.566;27.824;2022-08-19T09:44:43;98510.69;;;36.49;38.63
22214;BME280;11276;43.566;27.824;2022-08-19T09:47:12;98513.03;;;36.69;39.22
22214;BME280;11276;43.566;27.824;2022-08-19T09:49:40;98510.88;;;36.93;37.88
22214;BME280;11276;43.566;27.824;2022-08-19T09:52:11;98515.31;;;37.17;38.14
22214;BME280;11276;43.566;27.824;2022-08-19T09:54:38;98515.25;;;37.08;38.98
22214;BME280;11276;43.566;27.824;2022-08-19T09:57:05;98523.72;;;36.84;38.54
22214;BME280;11276;43.566;27.824;2022-08-19T09:59:33;98516.91;;;36.68;39.34
22214;BME280;11276;43.566;27.824;2022-08-19T10:02:00;98513.84;;;36.56;38.87
22214;BME280;11276;43.566;27.824;2022-08-19T10:04:27;98500.50;;;36.77;39.27
22214;BME280;11276;43.566;27.824;2022-08-19T10:07:15;98523.91;;;36.88;38.41
22214;BME280;11276;43.566;27.824;2022-08-19T10:09:42;98527.56;;;37.11;37.22
22214;BME280;11276;43.566;27.824;2022-08-19T10:12:08;98515.38;;;36.89;35.87
22214;BME280;11276;43.566;27.824;2022-08-19T10:14:36;98521.22;;;36.96;37.30
22214;BME280;11276;43.566;27.824;2022-08-19T10:17:03;98511.88;;;36.97;37.58
22214;BME280;11276;43.566;27.824;2022-08-19T10:19:30;98515.53;;;37.06;37.15
22214;BME280;11276;43.566;27.824;2022-08-19T10:22:04;98518.19;;;37.12;35.96
22214;BME280;11276;43.566;27.824;2022-08-19T10:24:32;98520.47;;;37.32;37.18
22214;BME280;11276;43.566;27.824;2022-08-19T10:27:01;98518.34;;;37.29;36.60
22214;BME280;11276;43.566;27.824;2022-08-19T10:29:32;98494.50;;;37.16;35.85
22214;BME280;11276;43.566;27.824;2022-08-19T10:32:01;98500.06;;;37.24;37.22
22214;BME280;11276;43.566;27.824;2022-08-19T10:34:30;98508.00;;;37.12;37.09
22214;BME280;11276;43.566;27.824;2022-08-19T10:36:58;98498.47;;;37.10;36.74
22214;BME280;11276;43.566;27.824;2022-08-19T10:39:28;98498.66;;;36.99;36.47
22214;BME280;11276;43.566;27.824;2022-08-19T10:41:56;98510.75;;;37.26;36.08
22214;BME280;11276;43.566;27.824;2022-08-19T10:44:23;98510.47;;;37.14;34.90
22214;BME280;11276;43.566;27.824;2022-08-19T10:46:50;98511.72;;;36.80;35.93
22214;BME280;11276;43.566;27.824;2022-08-19T10:49:18;98508.66;;;36.68;36.53
22214;BME280;11276;43.566;27.824;2022-08-19T10:51:45;98508.44;;;36.78;36.80
22214;BME280;11276;43.566;27.824;2022-08-19T10:54:32;98497.97;;;36.26;38.13
22214;BME280;11276;43.566;27.824;2022-08-19T10:57:18;98508.03;;;36.16;37.69
22214;BME280;11276;43.566;27.824;2022-08-19T10:59:44;98500.63;;;36.31;38.53
22214;BME280;11276;43.566;27.824;2022-08-19T11:02:11;98488.81;;;36.44;37.13
22214;BME280;11276;43.566;27.824;2022-08-19T11:04:39;98491.38;;;36.67;37.44
22214;BME280;11276;43.566;27.824;2022-08-19T11:07:07;98493.41;;;36.62;37.37
22214;BME280;11276;43.566;27.824;2022-08-19T11:09:40;98505.81;;;36.46;38.63
22214;BME280;11276;43.566;27.824;2022-08-19T11:12:09;98492.38;;;36.31;36.89
22214;BME280;11276;43.566;27.824;2022-08-19T11:14:36;98477.56;;;35.99;37.15
22214;BME280;11276;43.566;27.824;2022-08-19T11:17:04;98495.75;;;35.95;37.98
22214;BME280;11276;43.566;27.824;2022-08-19T11:19:32;98486.47;;;35.59;39.18
22214;BME280;11276;43.566;27.824;2022-08-19T11:21:59;98493.78;;;35.63;39.04
22214;BME280;11276;43.566;27.824;2022-08-19T11:24:28;98496.94;;;35.89;38.44
22214;BME280;11276;43.566;27.824;2022-08-19T11:27:02;98486.81;;;36.03;37.94
22214;BME280;11276;43.566;27.824;2022-08-19T11:29:32;98489.50;;;36.22;37.92
22214;BME280;11276;43.566;27.824;2022-08-19T11:32:04;98474.91;;;36.27;36.96
22214;BME280;11276;43.566;27.824;2022-08-19T11:34:32;98471.75;;;36.47;37.93
22214;BME280;11276;43.566;27.824;2022-08-19T11:36:59;98474.50;;;36.19;38.12
22214;BME280;11276;43.566;27.824;2022-08-19T11:39:28;98479.34;;;36.22;37.84
22214;BME280;11276;43.566;27.824;2022-08-19T11:41:57;98477.66;;;35.94;39.49
22214;BME280;11276;43.566;27.824;2022-08-19T11:44:25;98462.53;;;35.97;39.59
22214;BME280;11276;43.566;27.824;2022-08-19T11:46:52;98479.97;;;35.55;39.20
22214;BME280;11276;43.566;27.824;2022-08-19T11:49:19;98470.16;;;35.35;38.88
22214;BME280;11276;43.566;27.824;2022-08-19T11:51:47;98449.88;;;35.36;38.39
22214;BME280;11276;43.566;27.824;2022-08-19T11:54:17;98457.88;;;35.65;39.08
22214;BME280;11276;43.566;27.824;2022-08-19T11:56:44;98468.34;;;35.95;36.63
22214;BME280;11276;43.566;27.824;2022-08-19T11:59:13;98459.47;;;35.71;38.98
22214;BME280;11276;43.566;27.824;2022-08-19T12:01:40;98455.56;;;35.72;37.75
22214;BME280;11276;43.566;27.824;2022-08-19T12:04:09;98452.25;;;35.75;37.55
22214;BME280;11276;43.566;27.824;2022-08-19T12:06:38;98440.59;;;35.51;38.55
22214;BME280;11276;43.566;27.824;2022-08-19T12:09:07;98465.75;;;35.53;39.23
22214;BME280;11276;43.566;27.824;2022-08-19T12:11:36;98455.78;;;35.24;39.61
22214;BME280;11276;43.566;27.824;2022-08-19T12:14:04;98443.16;;;34.43;38.23
22214;BME280;11276;43.566;27.824;2022-08-19T12:16:31;98459.97;;;34.79;39.31
22214;BME280;11276;43.566;27.824;2022-08-19T12:18:59;98431.78;;;34.97;38.52
22214;BME280;11276;43.566;27.824;2022-08-19T12:21:32;98441.94;;;35.34;37.17
22214;BME280;11276;43.566;27.824;2022-08-19T12:24:01;98450.03;;;35.58;37.33
22214;BME280;11276;43.566;27.824;2022-08-19T12:26:29;98434.09;;;35.28;37.07
22214;BME280;11276;43.566;27.824;2022-08-19T12:28:58;98444.31;;;35.22;37.99
22214;BME280;11276;43.566;27.824;2022-08-19T12:31:29;98448.38;;;34.87;38.30
22214;BME280;11276;43.566;27.824;2022-08-19T12:33:56;98440.44;;;34.43;40.13
22214;BME280;11276;43.566;27.824;2022-08-19T12:36:23;98446.75;;;34.15;40.11
22214;BME280;11276;43.566;27.824;2022-08-19T12:38:51;98441.34;;;34.10;39.57
22214;BME280;11276;43.566;27.824;2022-08-19T12:41:19;98442.38;;;34.19;40.16
22214;BME280;11276;43.566;27.824;2022-08-19T12:43:49;98421.88;;;34.40;39.18
22214;BME280;11276;43.566;27.824;2022-08-19T12:46:18;98441.34;;;34.57;38.24
22214;BME280;11276;43.566;27.824;2022-08-19T12:48:45;98435.25;;;34.66;38.47
22214;BME280;11276;43.566;27.824;2022-08-19T12:51:16;98447.25;;;34.70;37.89
22214;BME280;11276;43.566;27.824;2022-08-19T12:53:46;98436.16;;;34.80;37.42
22214;BME280;11276;43.566;27.824;2022-08-19T12:56:13;98434.03;;;34.77;37.18
22214;BME280;11276;43.566;27.824;2022-08-19T12:58:42;98438.09;;;34.79;37.85
22214;BME280;11276;43.566;27.824;2022-08-19T13:01:11;98446.22;;;34.42;36.91
22214;BME280;11276;43.566;27.824;2022-08-19T13:03:38;98423.06;;;34.34;37.19
22214;BME280;11276;43.566;27.824;2022-08-19T13:06:06;98421.19;;;34.30;37.89